WetterOnline ( https://www.wetteronline.de )

Wetter aktuell Bürgstadt

Aktuelles Wetter: Michelstadt-Vielbrunn (455m)

6-stündlich | Neueste Meldungen
Ortszeit Temperatur Wetter
Mo, 15.07. 20:00 26.4° C bedeckt
Mo, 15.07. 14:00 25.9° C wolkenlos
Mo, 15.07. 8:00 19.3° C fast wolkenlos
Mo, 15.07. 2:00 16.5° C bedeckt
So, 14.07. 20:00 20.5° C bedeckt
So, 14.07. 14:00 21.0° C fast wolkenlos
So, 14.07. 8:00 16.3° C leicht bewölkt
So, 14.07. 2:00 14.8° C leicht bewölkt
Ortszeit Temperatur Wetter
Mo, 15.07. 20:30 25.5° C wolkig
Mo, 15.07. 20:20 25.5° C wolkig
Mo, 15.07. 20:10 26.0° C bedeckt
Mo, 15.07. 20:00 26.4° C bedeckt
Mo, 15.07. 19:50 26.4° C bedeckt
Mo, 15.07. 19:40 26.8° C bedeckt
Mo, 15.07. 19:30 27.6° C bedeckt
Mo, 15.07. 19:00 27.4° C leicht bewölkt
Mo, 15.07. 18:30 27.8° C leicht bewölkt
Mo, 15.07. 18:00 27.9° C leicht bewölkt
Mo, 15.07. 17:30 27.7° C leicht bewölkt
Ortszeit Relative Feuchte Sichtweite
Mo, 15.07. 20:00 53% 55 km
Mo, 15.07. 14:00 46% 30 km
Mo, 15.07. 8:00 62% 25 km
Mo, 15.07. 2:00 67% 60 km
So, 14.07. 20:00 55% >70 km
So, 14.07. 14:00 46% 55 km
So, 14.07. 8:00 74% >70 km
So, 14.07. 2:00 70% 65 km
Ortszeit Relative Feuchte Sichtweite
Mo, 15.07. 20:30 56% 45 km
Mo, 15.07. 20:20 56% -
Mo, 15.07. 20:10 54% -
Mo, 15.07. 20:00 53% 55 km
Mo, 15.07. 19:50 53% -
Mo, 15.07. 19:40 51% -
Mo, 15.07. 19:30 49% 60 km
Mo, 15.07. 19:00 47% >70 km
Mo, 15.07. 18:30 45% 65 km
Mo, 15.07. 18:00 43% 45 km
Mo, 15.07. 17:30 46% 65 km
Ortszeit Niederschlagsmenge Niederschlagsart
Mo, 15.07. 20:00 0.0 l/m2 in 12 Std. -
Mo, 15.07. 14:00 0.0 l/m2 in 6 Std. -
Mo, 15.07. 8:00 0.0 l/m2 in 12 Std. -
Mo, 15.07. 2:00 0.0 l/m2 in 6 Std. -
So, 14.07. 20:00 0.0 l/m2 in 12 Std. -
So, 14.07. 14:00 0.0 l/m2 in 6 Std. -
So, 14.07. 8:00 0.1 l/m2 in 12 Std. -
So, 14.07. 2:00 0.1 l/m2 in 6 Std. Regen
Ortszeit Niederschlagsmenge Niederschlagsart
Mo, 15.07. 20:30 0.0 l/m2 in 30 Min -
Mo, 15.07. 20:20 keine Meldung -
Mo, 15.07. 20:10 keine Meldung -
Mo, 15.07. 20:00 0.0 l/m2 in 1 Std. -
Mo, 15.07. 19:50 keine Meldung -
Mo, 15.07. 19:40 keine Meldung -
Mo, 15.07. 19:30 0.0 l/m2 in 30 Min -
Mo, 15.07. 19:00 0.0 l/m2 in 1 Std. -
Mo, 15.07. 18:30 0.0 l/m2 in 30 Min -
Mo, 15.07. 18:00 0.0 l/m2 in 1 Std. -
Mo, 15.07. 17:30 0.0 l/m2 in 30 Min -
Ortszeit Stärke Spitze Richtung
km/h Bft. km/h Grad Sektor
Mo, 15.07. 20:00 9 2 24 130° SO
Mo, 15.07. 14:00 9 2 24 150° SO
Mo, 15.07. 8:00 2 1 6 80° O
Mo, 15.07. 2:00 4 1 14 170° S
So, 14.07. 20:00 7 2 29 220° SW
So, 14.07. 14:00 14 3 29 220° SW
So, 14.07. 8:00 4 1 11 130° SO
So, 14.07. 2:00 7 2 15 240° SW
Ortszeit Stärke Spitze Richtung
km/h Bft. km/h Grad Sektor
Mo, 15.07. 20:30 9 2 11 120° SO
Mo, 15.07. 20:20 9 2 - 120° SO
Mo, 15.07. 20:10 9 2 - 130° SO
Mo, 15.07. 20:00 9 2 13 130° SO
Mo, 15.07. 19:50 9 2 - 130° SO
Mo, 15.07. 19:40 9 2 - 130° SO
Mo, 15.07. 19:30 7 2 13 130° SO
Mo, 15.07. 19:00 9 2 20 130° SO
Mo, 15.07. 18:30 13 3 20 140° SO
Mo, 15.07. 18:00 13 3 20 120° SO
Mo, 15.07. 17:30 11 2 20 170° S
Ortszeit Untergrenze Bedeckung Gattung
total tief tief mittel hoch
Mo, 15.07. 20:00 3000 m 8/8 8/8 - - -
Mo, 15.07. 14:00 - 0/8 0/8 - - -
Mo, 15.07. 8:00 10500 m 2/8 0/8 - - -
Mo, 15.07. 2:00 3000 m 8/8 8/8 - - -
So, 14.07. 20:00 3900 m 8/8 8/8 - - -
So, 14.07. 14:00 2100 m 1/8 1/8 - - -
So, 14.07. 8:00 2700 m 4/8 4/8 - - -
So, 14.07. 2:00 3000 m 3/8 3/8 - - -
Ortszeit Bedeckungsgrad in Achtel und Wolkenuntergrenze
Mo, 15.07. 20:30 3(3000m) 7(8400m) 8(9000m)
Mo, 15.07. 20:20 3(3000m) 7(8400m) 8(9000m)
Mo, 15.07. 20:10 8
Mo, 15.07. 20:00 3(3000m) 8(5400m) 8(9000m)
Mo, 15.07. 19:50 3(3000m) 8(5400m) 8(9000m)
Mo, 15.07. 19:40 8
Mo, 15.07. 19:30 8(4800m)
Mo, 15.07. 19:00 3(9000m) 3(9000m)
Mo, 15.07. 18:30 4(8700m) 6(9000m)
Mo, 15.07. 18:00 3(9000m)
Mo, 15.07. 17:30 3(8400m)
Ortszeit Luftdruck NN (hPa) Tendenz (hPa in 3 Std.)
Mo, 15.07. 20:00 1008 - 1,0
Mo, 15.07. 14:00 1011 - 1,0
Mo, 15.07. 8:00 1014 + 0,1
Mo, 15.07. 2:00 1014 + 0,1
So, 14.07. 20:00 1013 - 0,1
So, 14.07. 14:00 1014 - 0,2
So, 14.07. 8:00 1014 + 0,5
So, 14.07. 2:00 1014 - 0,2
Ortszeit Luftdruck NN (hPa) Tendenz (hPa in 3 Std.)
Mo, 15.07. 20:30 1008 - 1,0
Mo, 15.07. 20:20 1008 keine Meldung
Mo, 15.07. 20:10 1008 keine Meldung
Mo, 15.07. 20:00 1008 - 1,0
Mo, 15.07. 19:50 1008 keine Meldung
Mo, 15.07. 19:40 1008 keine Meldung
Mo, 15.07. 19:30 1008 - 1,4
Mo, 15.07. 19:00 1008 - 1,8
Mo, 15.07. 18:30 1008 - 1,8
Mo, 15.07. 18:00 1008 - 1,5
Mo, 15.07. 17:30 1009 - 1,4
Ortszeit Schneehöhe (cm)
Mo, 15.07. 20:00 0
Mo, 15.07. 14:00 0
Mo, 15.07. 8:00 0
Mo, 15.07. 2:00 0
So, 14.07. 20:00 0
So, 14.07. 14:00 0
So, 14.07. 8:00 0
So, 14.07. 2:00 0
Ortszeit Schneehöhe (cm)
Mo, 15.07. 20:30 0
Mo, 15.07. 20:20 0
Mo, 15.07. 20:10 -
Mo, 15.07. 20:00 0
Mo, 15.07. 19:50 0
Mo, 15.07. 19:40 -
Mo, 15.07. 19:30 0
Mo, 15.07. 19:00 0
Mo, 15.07. 18:30 0
Mo, 15.07. 18:00 0
Mo, 15.07. 17:30 0
Link zu dieser Seite / Seite empfehlen

Das Wetter in ...